sensor_id;sensor_type;location;lat;lon;timestamp;pressure;altitude;pressure_sealevel;temperature;humidity
65329;BME280;51941;52.210;5.158;2023-04-09T00:00:17;102591.09;;;8.95;100.00
65329;BME280;51941;52.210;5.158;2023-04-09T00:02:44;102595.88;;;8.99;100.00
65329;BME280;51941;52.210;5.158;2023-04-09T00:05:11;102592.41;;;8.99;100.00
65329;BME280;51941;52.210;5.158;2023-04-09T00:07:39;102598.50;;;8.99;100.00
65329;BME280;51941;52.210;5.158;2023-04-09T00:10:07;102579.28;;;8.91;100.00
65329;BME280;51941;52.210;5.158;2023-04-09T00:12:34;102594.50;;;9.03;100.00
65329;BME280;51941;52.210;5.158;2023-04-09T00:15:02;102593.50;;;9.04;100.00
65329;BME280;51941;52.210;5.158;2023-04-09T00:17:28;102590.53;;;9.07;100.00
65329;BME280;51941;52.210;5.158;2023-04-09T00:19:55;102594.63;;;9.10;100.00
65329;BME280;51941;52.210;5.158;2023-04-09T00:22:22;102598.72;;;9.12;100.00
65329;BME280;51941;52.210;5.158;2023-04-09T00:24:50;102588.81;;;9.14;100.00
65329;BME280;51941;52.210;5.158;2023-04-09T00:27:16;102584.34;;;9.15;100.00
65329;BME280;51941;52.210;5.158;2023-04-09T00:29:43;102581.38;;;9.18;100.00
65329;BME280;51941;52.210;5.158;2023-04-09T00:32:10;102573.47;;;9.18;100.00
65329;BME280;51941;52.210;5.158;2023-04-09T00:34:36;102578.88;;;9.16;100.00
65329;BME280;51941;52.210;5.158;2023-04-09T00:37:03;102579.84;;;9.24;100.00
65329;BME280;51941;52.210;5.158;2023-04-09T00:39:30;102558.75;;;9.15;100.00
65329;BME280;51941;52.210;5.158;2023-04-09T00:41:59;102530.00;;;8.98;100.00
65329;BME280;51941;52.210;5.158;2023-04-09T00:44:27;102574.72;;;9.22;100.00
65329;BME280;51941;52.210;5.158;2023-04-09T00:46:54;102568.81;;;9.20;100.00
65329;BME280;51941;52.210;5.158;2023-04-09T00:49:21;102568.00;;;9.20;100.00
65329;BME280;51941;52.210;5.158;2023-04-09T00:51:49;102566.34;;;9.18;100.00
65329;BME280;51941;52.210;5.158;2023-04-09T00:54:16;102560.25;;;9.18;100.00
65329;BME280;51941;52.210;5.158;2023-04-09T00:56:42;102568.81;;;9.20;100.00
65329;BME280;51941;52.210;5.158;2023-04-09T00:59:10;102564.84;;;9.16;100.00
65329;BME280;51941;52.210;5.158;2023-04-09T01:01:37;102561.69;;;9.21;100.00
65329;BME280;51941;52.210;5.158;2023-04-09T01:04:04;102563.81;;;9.25;100.00
65329;BME280;51941;52.210;5.158;2023-04-09T01:06:36;102564.63;;;9.26;100.00
65329;BME280;51941;52.210;5.158;2023-04-09T01:09:09;102563.91;;;9.32;100.00
65329;BME280;51941;52.210;5.158;2023-04-09T01:11:45;102560.09;;;9.34;100.00
65329;BME280;51941;52.210;5.158;2023-04-09T01:14:20;102553.63;;;9.37;100.00
65329;BME280;51941;52.210;5.158;2023-04-09T01:16:55;102547.16;;;9.39;100.00
65329;BME280;51941;52.210;5.158;2023-04-09T01:19:36;102553.44;;;9.38;100.00
65329;BME280;51941;52.210;5.158;2023-04-09T01:22:12;102546.88;;;9.34;100.00
65329;BME280;51941;52.210;5.158;2023-04-09T01:24:45;102544.06;;;9.36;100.00
65329;BME280;51941;52.210;5.158;2023-04-09T01:27:26;102512.84;;;9.16;100.00
65329;BME280;51941;52.210;5.158;2023-04-09T01:30:03;102539.44;;;9.38;100.00
65329;BME280;51941;52.210;5.158;2023-04-09T01:32:32;102510.72;;;9.12;100.00
65329;BME280;51941;52.210;5.158;2023-04-09T01:35:03;102538.59;;;9.37;100.00
65329;BME280;51941;52.210;5.158;2023-04-09T01:37:32;102541.03;;;9.39;100.00
65329;BME280;51941;52.210;5.158;2023-04-09T01:40:00;102545.16;;;9.41;100.00
65329;BME280;51941;52.210;5.158;2023-04-09T01:42:28;102542.16;;;9.44;100.00
65329;BME280;51941;52.210;5.158;2023-04-09T01:44:55;102539.34;;;9.46;100.00
65329;BME280;51941;52.210;5.158;2023-04-09T01:47:26;102546.63;;;9.44;100.00
65329;BME280;51941;52.210;5.158;2023-04-09T01:49:53;102547.06;;;9.47;100.00
65329;BME280;51941;52.210;5.158;2023-04-09T01:52:20;102549.69;;;9.47;100.00
65329;BME280;51941;52.210;5.158;2023-04-09T01:54:47;102535.88;;;9.45;100.00
65329;BME280;51941;52.210;5.158;2023-04-09T01:57:13;102544.25;;;9.49;100.00
65329;BME280;51941;52.210;5.158;2023-04-09T01:59:40;102547.53;;;9.51;100.00
65329;BME280;51941;52.210;5.158;2023-04-09T02:02:09;102546.53;;;9.52;100.00
65329;BME280;51941;52.210;5.158;2023-04-09T02:04:40;102551.63;;;9.53;100.00
65329;BME280;51941;52.210;5.158;2023-04-09T02:07:11;102553.28;;;9.54;100.00
65329;BME280;51941;52.210;5.158;2023-04-09T02:09:44;102539.59;;;9.51;100.00
65329;BME280;51941;52.210;5.158;2023-04-09T02:12:16;102534.78;;;9.54;100.00
65329;BME280;51941;52.210;5.158;2023-04-09T02:14:44;102540.06;;;9.54;100.00
65329;BME280;51941;52.210;5.158;2023-04-09T02:17:12;102538.03;;;9.56;100.00
65329;BME280;51941;52.210;5.158;2023-04-09T02:19:41;102521.91;;;9.51;100.00
65329;BME280;51941;52.210;5.158;2023-04-09T02:22:08;102534.41;;;9.57;100.00
65329;BME280;51941;52.210;5.158;2023-04-09T02:24:35;102537.88;;;9.58;100.00
65329;BME280;51941;52.210;5.158;2023-04-09T02:27:02;102513.53;;;9.48;100.00
65329;BME280;51941;52.210;5.158;2023-04-09T02:29:29;102540.97;;;9.62;100.00
65329;BME280;51941;52.210;5.158;2023-04-09T02:31:55;102530.56;;;9.60;100.00
65329;BME280;51941;52.210;5.158;2023-04-09T02:34:22;102530.75;;;9.59;100.00
65329;BME280;51941;52.210;5.158;2023-04-09T02:36:51;102509.06;;;9.48;100.00
65329;BME280;51941;52.210;5.158;2023-04-09T02:39:17;102535.31;;;9.65;100.00
65329;BME280;51941;52.210;5.158;2023-04-09T02:41:44;102524.72;;;9.65;100.00
65329;BME280;51941;52.210;5.158;2023-04-09T02:44:11;102528.84;;;9.67;100.00
65329;BME280;51941;52.210;5.158;2023-04-09T02:46:37;102529.47;;;9.69;100.00
65329;BME280;51941;52.210;5.158;2023-04-09T02:49:04;102495.94;;;9.55;100.00
65329;BME280;51941;52.210;5.158;2023-04-09T02:51:33;102520.56;;;9.70;100.00
65329;BME280;51941;52.210;5.158;2023-04-09T02:54:01;102520.16;;;9.73;100.00
65329;BME280;51941;52.210;5.158;2023-04-09T02:56:28;102491.75;;;9.61;100.00
65329;BME280;51941;52.210;5.158;2023-04-09T02:58:55;102510.41;;;9.74;100.00
65329;BME280;51941;52.210;5.158;2023-04-09T03:01:22;102518.16;;;9.75;100.00
65329;BME280;51941;52.210;5.158;2023-04-09T03:03:49;102498.94;;;9.67;100.00
65329;BME280;51941;52.210;5.158;2023-04-09T03:06:16;102505.94;;;9.74;100.00
65329;BME280;51941;52.210;5.158;2023-04-09T03:08:43;102512.22;;;9.73;100.00
65329;BME280;51941;52.210;5.158;2023-04-09T03:11:11;102505.75;;;9.76;100.00
65329;BME280;51941;52.210;5.158;2023-04-09T03:13:38;102503.94;;;9.76;100.00
65329;BME280;51941;52.210;5.158;2023-04-09T03:16:05;102501.13;;;9.78;100.00
65329;BME280;51941;52.210;5.158;2023-04-09T03:18:32;102506.22;;;9.79;100.00
65329;BME280;51941;52.210;5.158;2023-04-09T03:21:03;102492.94;;;9.73;100.00
65329;BME280;51941;52.210;5.158;2023-04-09T03:23:31;102505.41;;;9.79;100.00
65329;BME280;51941;52.210;5.158;2023-04-09T03:26:01;102501.75;;;9.80;100.00
65329;BME280;51941;52.210;5.158;2023-04-09T03:28:33;102489.34;;;9.66;100.00
65329;BME280;51941;52.210;5.158;2023-04-09T03:31:01;102487.81;;;9.71;100.00
65329;BME280;51941;52.210;5.158;2023-04-09T03:33:33;102500.66;;;9.74;100.00
65329;BME280;51941;52.210;5.158;2023-04-09T03:35:59;102497.41;;;9.72;100.00
65329;BME280;51941;52.210;5.158;2023-04-09T03:38:52;102491.47;;;9.70;100.00
65329;BME280;51941;52.210;5.158;2023-04-09T03:41:35;102491.28;;;9.72;100.00
65329;BME280;51941;52.210;5.158;2023-04-09T03:44:06;102494.94;;;9.71;100.00
65329;BME280;51941;52.210;5.158;2023-04-09T03:46:59;102486.00;;;9.72;100.00
65329;BME280;51941;52.210;5.158;2023-04-09T03:49:27;102491.91;;;9.74;100.00
65329;BME280;51941;52.210;5.158;2023-04-09T03:51:59;102495.19;;;9.76;100.00
65329;BME280;51941;52.210;5.158;2023-04-09T03:54:33;102495.19;;;9.76;100.00
65329;BME280;51941;52.210;5.158;2023-04-09T03:57:03;102484.59;;;9.76;100.00
65329;BME280;51941;52.210;5.158;2023-04-09T03:59:33;102487.44;;;9.74;100.00
65329;BME280;51941;52.210;5.158;2023-04-09T04:02:00;102486.25;;;9.77;100.00
65329;BME280;51941;52.210;5.158;2023-04-09T04:04:28;102477.69;;;9.75;100.00
65329;BME280;51941;52.210;5.158;2023-04-09T04:06:57;102481.53;;;9.72;100.00
65329;BME280;51941;52.210;5.158;2023-04-09T04:09:29;102483.13;;;9.73;100.00
65329;BME280;51941;52.210;5.158;2023-04-09T04:12:02;102454.25;;;9.57;100.00
65329;BME280;51941;52.210;5.158;2023-04-09T04:15:02;102475.41;;;9.72;100.00
65329;BME280;51941;52.210;5.158;2023-04-09T04:17:35;102469.13;;;9.73;100.00
65329;BME280;51941;52.210;5.158;2023-04-09T04:20:06;102452.91;;;9.61;100.00
65329;BME280;51941;52.210;5.158;2023-04-09T04:22:42;102466.84;;;9.70;100.00
65329;BME280;51941;52.210;5.158;2023-04-09T04:25:09;102467.19;;;9.67;100.00
65329;BME280;51941;52.210;5.158;2023-04-09T04:27:36;102462.09;;;9.65;100.00
65329;BME280;51941;52.210;5.158;2023-04-09T04:30:07;102458.44;;;9.66;100.00
65329;BME280;51941;52.210;5.158;2023-04-09T04:32:41;102464.75;;;9.65;100.00
65329;BME280;51941;52.210;5.158;2023-04-09T04:35:10;102470.66;;;9.67;100.00
65329;BME280;51941;52.210;5.158;2023-04-09T04:37:38;102464.56;;;9.67;100.00
65329;BME280;51941;52.210;5.158;2023-04-09T04:40:06;102468.19;;;9.66;100.00
65329;BME280;51941;52.210;5.158;2023-04-09T04:42:37;102465.56;;;9.66;100.00
65329;BME280;51941;52.210;5.158;2023-04-09T04:45:11;102475.78;;;9.69;100.00
65329;BME280;51941;52.210;5.158;2023-04-09T04:47:45;102475.59;;;9.70;100.00
65329;BME280;51941;52.210;5.158;2023-04-09T04:50:12;102472.78;;;9.72;100.00
65329;BME280;51941;52.210;5.158;2023-04-09T04:52:54;102477.25;;;9.71;100.00
65329;BME280;51941;52.210;5.158;2023-04-09T04:55:24;102473.78;;;9.71;100.00
65329;BME280;51941;52.210;5.158;2023-04-09T04:57:51;102469.31;;;9.71;100.00
65329;BME280;51941;52.210;5.158;2023-04-09T05:00:23;102477.06;;;9.73;100.00
65329;BME280;51941;52.210;5.158;2023-04-09T05:02:50;102472.56;;;9.73;100.00
65329;BME280;51941;52.210;5.158;2023-04-09T05:05:40;102472.94;;;9.70;100.00
65329;BME280;51941;52.210;5.158;2023-04-09T05:08:07;102472.94;;;9.70;100.00
65329;BME280;51941;52.210;5.158;2023-04-09T05:10:34;102476.41;;;9.71;100.00
65329;BME280;51941;52.210;5.158;2023-04-09T05:13:01;102473.78;;;9.71;100.00
65329;BME280;51941;52.210;5.158;2023-04-09T05:15:38;102450.44;;;9.60;100.00
65329;BME280;51941;52.210;5.158;2023-04-09T05:18:05;102460.66;;;9.63;100.00
65329;BME280;51941;52.210;5.158;2023-04-09T05:20:33;102476.25;;;9.72;100.00
65329;BME280;51941;52.210;5.158;2023-04-09T05:23:05;102476.59;;;9.69;100.00
65329;BME280;51941;52.210;5.158;2023-04-09T05:25:41;102475.22;;;9.73;100.00
65329;BME280;51941;52.210;5.158;2023-04-09T05:28:17;102480.13;;;9.76;100.00
65329;BME280;51941;52.210;5.158;2023-04-09T05:30:48;102482.59;;;9.78;100.00
65329;BME280;51941;52.210;5.158;2023-04-09T05:33:17;102479.78;;;9.79;100.00
65329;BME280;51941;52.210;5.158;2023-04-09T05:35:44;102485.88;;;9.80;100.00
65329;BME280;51941;52.210;5.158;2023-04-09T05:38:10;102482.25;;;9.81;100.00
65329;BME280;51941;52.210;5.158;2023-04-09T05:40:39;102492.25;;;9.85;100.00
65329;BME280;51941;52.210;5.158;2023-04-09T05:43:10;102483.06;;;9.81;100.00
65329;BME280;51941;52.210;5.158;2023-04-09T05:45:41;102482.50;;;9.86;100.00
65329;BME280;51941;52.210;5.158;2023-04-09T05:48:09;102483.13;;;9.88;100.00
65329;BME280;51941;52.210;5.158;2023-04-09T05:50:37;102492.31;;;9.92;100.00
65329;BME280;51941;52.210;5.158;2023-04-09T05:53:04;102493.97;;;9.93;100.00
65329;BME280;51941;52.210;5.158;2023-04-09T05:55:37;102486.03;;;9.93;100.00
65329;BME280;51941;52.210;5.158;2023-04-09T05:58:03;102490.88;;;9.89;100.00
65329;BME280;51941;52.210;5.158;2023-04-09T06:00:31;102479.91;;;9.92;100.00
65329;BME280;51941;52.210;5.158;2023-04-09T06:02:57;102488.13;;;9.98;100.00
65329;BME280;51941;52.210;5.158;2023-04-09T06:05:27;102491.78;;;9.97;100.00
65329;BME280;51941;52.210;5.158;2023-04-09T06:07:54;102494.25;;;9.98;100.00
65329;BME280;51941;52.210;5.158;2023-04-09T06:10:20;102496.69;;;10.00;100.00
65329;BME280;51941;52.210;5.158;2023-04-09T06:12:47;102495.69;;;10.01;100.00
65329;BME280;51941;52.210;5.158;2023-04-09T06:15:15;102497.50;;;10.00;100.00
65329;BME280;51941;52.210;5.158;2023-04-09T06:17:43;102495.88;;;9.99;100.00
65329;BME280;51941;52.210;5.158;2023-04-09T06:20:10;102501.59;;;10.03;100.00
65329;BME280;51941;52.210;5.158;2023-04-09T06:22:38;102504.06;;;10.04;100.00
65329;BME280;51941;52.210;5.158;2023-04-09T06:25:05;102494.50;;;10.03;100.00
65329;BME280;51941;52.210;5.158;2023-04-09T06:27:32;102515.13;;;10.08;100.00
65329;BME280;51941;52.210;5.158;2023-04-09T06:29:59;102513.09;;;10.10;100.00
65329;BME280;51941;52.210;5.158;2023-04-09T06:32:25;102488.31;;;9.96;100.00
65329;BME280;51941;52.210;5.158;2023-04-09T06:34:52;102482.19;;;9.96;100.00
65329;BME280;51941;52.210;5.158;2023-04-09T06:37:19;102509.25;;;10.12;100.00
65329;BME280;51941;52.210;5.158;2023-04-09T06:39:47;102507.25;;;10.14;100.00
65329;BME280;51941;52.210;5.158;2023-04-09T06:42:14;102506.34;;;10.07;100.00
65329;BME280;51941;52.210;5.158;2023-04-09T06:44:50;102501.31;;;10.12;100.00
65329;BME280;51941;52.210;5.158;2023-04-09T06:47:17;102508.25;;;10.13;100.00
65329;BME280;51941;52.210;5.158;2023-04-09T06:49:44;102511.34;;;10.17;100.00
65329;BME280;51941;52.210;5.158;2023-04-09T06:52:11;102503.41;;;10.17;100.00
65329;BME280;51941;52.210;5.158;2023-04-09T06:54:37;102501.56;;;10.17;100.00
65329;BME280;51941;52.210;5.158;2023-04-09T06:57:06;102505.66;;;10.20;100.00
65329;BME280;51941;52.210;5.158;2023-04-09T06:59:33;102508.13;;;10.21;100.00
65329;BME280;51941;52.210;5.158;2023-04-09T07:02:00;102505.94;;;10.25;100.00
65329;BME280;51941;52.210;5.158;2023-04-09T07:04:26;102510.19;;;10.26;100.00
65329;BME280;51941;52.210;5.158;2023-04-09T07:06:53;102510.41;;;10.24;100.00
65329;BME280;51941;52.210;5.158;2023-04-09T07:09:21;102509.19;;;10.27;100.00
65329;BME280;51941;52.210;5.158;2023-04-09T07:11:47;102514.31;;;10.28;100.00
65329;BME280;51941;52.210;5.158;2023-04-09T07:14:15;102518.41;;;10.31;100.00
65329;BME280;51941;52.210;5.158;2023-04-09T07:16:42;102488.91;;;10.13;100.00
65329;BME280;51941;52.210;5.158;2023-04-09T07:19:10;102516.19;;;10.35;100.00
65329;BME280;51941;52.210;5.158;2023-04-09T07:21:37;102518.25;;;10.32;100.00
65329;BME280;51941;52.210;5.158;2023-04-09T07:24:04;102515.41;;;10.34;100.00
65329;BME280;51941;52.210;5.158;2023-04-09T07:26:31;102521.53;;;10.20;100.00
65329;BME280;51941;52.210;5.158;2023-04-09T07:28:58;102514.06;;;10.23;100.00
65329;BME280;51941;52.210;5.158;2023-04-09T07:31:26;102527.38;;;10.30;100.00
65329;BME280;51941;52.210;5.158;2023-04-09T07:33:52;102519.25;;;10.31;100.00
65329;BME280;51941;52.210;5.158;2023-04-09T07:36:19;102509.28;;;10.34;100.00
65329;BME280;51941;52.210;5.158;2023-04-09T07:38:46;102522.78;;;10.39;100.00
65329;BME280;51941;52.210;5.158;2023-04-09T07:41:13;102520.13;;;10.39;100.00
65329;BME280;51941;52.210;5.158;2023-04-09T07:43:39;102518.75;;;10.43;100.00
65329;BME280;51941;52.210;5.158;2023-04-09T07:46:06;102520.38;;;10.44;100.00
65329;BME280;51941;52.210;5.158;2023-04-09T07:48:34;102518.81;;;10.49;100.00
65329;BME280;51941;52.210;5.158;2023-04-09T07:51:01;102512.50;;;10.50;100.00
65329;BME280;51941;52.210;5.158;2023-04-09T07:53:29;102510.56;;;10.59;100.00
65329;BME280;51941;52.210;5.158;2023-04-09T07:55:56;102508.97;;;10.64;100.00
65329;BME280;51941;52.210;5.158;2023-04-09T07:58:22;102512.66;;;10.70;100.00
65329;BME280;51941;52.210;5.158;2023-04-09T08:00:49;102509.31;;;10.76;100.00
65329;BME280;51941;52.210;5.158;2023-04-09T08:03:16;102474.31;;;10.59;100.00
65329;BME280;51941;52.210;5.158;2023-04-09T08:05:44;102509.03;;;10.92;100.00
65329;BME280;51941;52.210;5.158;2023-04-09T08:08:11;102514.38;;;10.99;100.00
65329;BME280;51941;52.210;5.158;2023-04-09T08:10:38;102490.31;;;10.94;100.00
65329;BME280;51941;52.210;5.158;2023-04-09T08:13:04;102519.53;;;11.07;100.00
65329;BME280;51941;52.210;5.158;2023-04-09T08:15:31;102514.69;;;11.11;100.00
65329;BME280;51941;52.210;5.158;2023-04-09T08:17:58;102518.16;;;11.11;100.00
65329;BME280;51941;52.210;5.158;2023-04-09T08:20:27;102512.25;;;11.16;100.00
65329;BME280;51941;52.210;5.158;2023-04-09T08:22:55;102513.75;;;11.25;100.00
65329;BME280;51941;52.210;5.158;2023-04-09T08:25:22;102511.75;;;11.33;100.00
65329;BME280;51941;52.210;5.158;2023-04-09T08:27:49;102504.66;;;11.40;100.00
65329;BME280;51941;52.210;5.158;2023-04-09T08:30:15;102511.84;;;11.47;100.00
65329;BME280;51941;52.210;5.158;2023-04-09T08:32:42;102503.31;;;11.51;100.00
65329;BME280;51941;52.210;5.158;2023-04-09T08:35:10;102500.91;;;11.56;100.00
65329;BME280;51941;52.210;5.158;2023-04-09T08:37:37;102507.50;;;11.73;99.82
65329;BME280;51941;52.210;5.158;2023-04-09T08:40:07;102508.56;;;11.86;98.83
65329;BME280;51941;52.210;5.158;2023-04-09T08:42:34;102507.38;;;11.95;97.98
65329;BME280;51941;52.210;5.158;2023-04-09T08:45:03;102507.25;;;12.09;97.19
65329;BME280;51941;52.210;5.158;2023-04-09T08:47:30;102508.50;;;12.20;96.47
65329;BME280;51941;52.210;5.158;2023-04-09T08:49:58;102506.91;;;12.32;95.23
65329;BME280;51941;52.210;5.158;2023-04-09T08:52:31;102503.25;;;12.46;94.65
65329;BME280;51941;52.210;5.158;2023-04-09T08:54:57;102492.44;;;12.61;93.98
65329;BME280;51941;52.210;5.158;2023-04-09T08:57:26;102498.59;;;12.62;92.28
65329;BME280;51941;52.210;5.158;2023-04-09T08:59:52;102494.28;;;12.61;91.37
65329;BME280;51941;52.210;5.158;2023-04-09T09:02:19;102495.09;;;12.74;90.73
65329;BME280;51941;52.210;5.158;2023-04-09T09:04:47;102501.25;;;12.88;90.30
65329;BME280;51941;52.210;5.158;2023-04-09T09:07:14;102493.03;;;13.03;90.19
65329;BME280;51941;52.210;5.158;2023-04-09T09:09:51;102494.03;;;13.21;88.38
65329;BME280;51941;52.210;5.158;2023-04-09T09:12:33;102487.47;;;13.50;86.04
65329;BME280;51941;52.210;5.158;2023-04-09T09:15:01;102488.78;;;13.73;86.02
65329;BME280;51941;52.210;5.158;2023-04-09T09:17:27;102492.28;;;13.73;84.12
65329;BME280;51941;52.210;5.158;2023-04-09T09:19:54;102482.66;;;13.72;83.30
65329;BME280;51941;52.210;5.158;2023-04-09T09:22:21;102484.69;;;13.77;83.56
65329;BME280;51941;52.210;5.158;2023-04-09T09:24:48;102484.91;;;13.75;82.35
65329;BME280;51941;52.210;5.158;2023-04-09T09:27:34;102484.31;;;13.66;79.80
65329;BME280;51941;52.210;5.158;2023-04-09T09:30:05;102476.13;;;13.68;79.51
65329;BME280;51941;52.210;5.158;2023-04-09T09:32:33;102480.13;;;13.90;78.48
65329;BME280;51941;52.210;5.158;2023-04-09T09:35:02;102459.78;;;14.02;77.36
65329;BME280;51941;52.210;5.158;2023-04-09T09:37:30;102436.50;;;14.23;76.86
65329;BME280;51941;52.210;5.158;2023-04-09T09:39:58;102472.13;;;14.60;74.14
65329;BME280;51941;52.210;5.158;2023-04-09T09:42:25;102345.75;;;13.68;72.92
65329;BME280;51941;52.210;5.158;2023-04-09T09:44:54;102479.44;;;14.33;73.83
65329;BME280;51941;52.210;5.158;2023-04-09T09:47:22;102470.00;;;14.37;74.05
65329;BME280;51941;52.210;5.158;2023-04-09T09:49:50;102467.97;;;14.39;73.92
65329;BME280;51941;52.210;5.158;2023-04-09T09:52:21;102442.28;;;14.13;73.67
65329;BME280;51941;52.210;5.158;2023-04-09T09:54:50;102463.53;;;14.26;73.74
65329;BME280;51941;52.210;5.158;2023-04-09T09:57:18;102442.63;;;14.30;73.67
65329;BME280;51941;52.210;5.158;2023-04-09T09:59:50;102417.63;;;14.24;71.90
65329;BME280;51941;52.210;5.158;2023-04-09T10:02:22;102456.94;;;14.60;72.31
65329;BME280;51941;52.210;5.158;2023-04-09T10:04:51;102453.50;;;14.78;72.23
65329;BME280;51941;52.210;5.158;2023-04-09T10:07:19;102456.88;;;14.92;71.47
65329;BME280;51941;52.210;5.158;2023-04-09T10:09:49;102448.53;;;15.06;70.47
65329;BME280;51941;52.210;5.158;2023-04-09T10:12:17;102426.66;;;15.16;70.61
65329;BME280;51941;52.210;5.158;2023-04-09T10:14:46;102436.66;;;15.57;70.75
65329;BME280;51941;52.210;5.158;2023-04-09T10:17:13;102431.31;;;15.75;68.56
65329;BME280;51941;52.210;5.158;2023-04-09T10:19:44;102429.44;;;15.76;66.34
65329;BME280;51941;52.210;5.158;2023-04-09T10:22:16;102425.38;;;15.73;65.72
65329;BME280;51941;52.210;5.158;2023-04-09T10:24:43;102418.50;;;15.66;64.72
65329;BME280;51941;52.210;5.158;2023-04-09T10:27:12;102423.72;;;15.72;66.46
65329;BME280;51941;52.210;5.158;2023-04-09T10:29:43;102420.63;;;15.75;65.69
65329;BME280;51941;52.210;5.158;2023-04-09T10:32:10;102412.50;;;15.82;66.24
65329;BME280;51941;52.210;5.158;2023-04-09T10:34:38;102411.75;;;15.93;66.35
65329;BME280;51941;52.210;5.158;2023-04-09T10:37:08;102375.84;;;15.89;65.08
65329;BME280;51941;52.210;5.158;2023-04-09T10:39:38;102402.75;;;16.17;64.68
65329;BME280;51941;52.210;5.158;2023-04-09T10:42:07;102406.78;;;16.08;65.08
65329;BME280;51941;52.210;5.158;2023-04-09T10:44:38;102396.25;;;16.13;62.01
65329;BME280;51941;52.210;5.158;2023-04-09T10:47:07;102399.41;;;16.22;62.83
65329;BME280;51941;52.210;5.158;2023-04-09T10:49:37;102369.97;;;16.10;62.92
65329;BME280;51941;52.210;5.158;2023-04-09T10:52:07;102395.59;;;16.41;63.40
65329;BME280;51941;52.210;5.158;2023-04-09T10:54:40;102386.16;;;16.50;62.63
65329;BME280;51941;52.210;5.158;2023-04-09T10:57:15;102391.72;;;16.60;61.05
65329;BME280;51941;52.210;5.158;2023-04-09T10:59:44;102350.59;;;16.38;62.23
65329;BME280;51941;52.210;5.158;2023-04-09T11:02:48;102387.69;;;16.70;62.35
65329;BME280;51941;52.210;5.158;2023-04-09T11:05:31;102354.78;;;16.46;61.55
65329;BME280;51941;52.210;5.158;2023-04-09T11:08:03;102390.16;;;16.83;61.82
65329;BME280;51941;52.210;5.158;2023-04-09T11:10:31;102376.19;;;16.81;61.07
65329;BME280;51941;52.210;5.158;2023-04-09T11:12:58;102382.91;;;16.95;62.03
65329;BME280;51941;52.210;5.158;2023-04-09T11:15:25;102376.94;;;17.04;60.96
65329;BME280;51941;52.210;5.158;2023-04-09T11:17:51;102379.84;;;17.03;59.73
65329;BME280;51941;52.210;5.158;2023-04-09T11:20:20;102380.06;;;17.13;60.27
65329;BME280;51941;52.210;5.158;2023-04-09T11:22:47;102373.44;;;17.16;58.25
65329;BME280;51941;52.210;5.158;2023-04-09T11:25:23;102366.13;;;17.11;56.76
65329;BME280;51941;52.210;5.158;2023-04-09T11:27:50;102352.09;;;16.92;56.68
65329;BME280;51941;52.210;5.158;2023-04-09T11:30:17;102362.56;;;16.94;55.74
65329;BME280;51941;52.210;5.158;2023-04-09T11:32:44;102353.53;;;16.83;56.22
65329;BME280;51941;52.210;5.158;2023-04-09T11:35:12;102354.66;;;16.87;57.00
65329;BME280;51941;52.210;5.158;2023-04-09T11:37:39;102349.34;;;16.76;56.72
65329;BME280;51941;52.210;5.158;2023-04-09T11:40:12;102364.06;;;16.90;56.78
65329;BME280;51941;52.210;5.158;2023-04-09T11:42:41;102361.41;;;16.90;56.63
65329;BME280;51941;52.210;5.158;2023-04-09T11:45:09;102370.25;;;16.79;58.54
65329;BME280;51941;52.210;5.158;2023-04-09T11:47:37;102357.47;;;16.81;58.33
65329;BME280;51941;52.210;5.158;2023-04-09T11:50:27;102337.47;;;16.72;58.93
65329;BME280;51941;52.210;5.158;2023-04-09T11:52:54;102354.63;;;16.99;59.11
65329;BME280;51941;52.210;5.158;2023-04-09T11:55:22;102346.78;;;17.21;58.90
65329;BME280;51941;52.210;5.158;2023-04-09T11:57:52;102359.00;;;17.28;57.68
65329;BME280;51941;52.210;5.158;2023-04-09T12:00:21;102345.91;;;17.32;57.43
65329;BME280;51941;52.210;5.158;2023-04-09T12:02:50;102343.25;;;17.32;57.35
65329;BME280;51941;52.210;5.158;2023-04-09T12:05:25;102331.22;;;17.18;57.10
65329;BME280;51941;52.210;5.158;2023-04-09T12:07:56;102344.69;;;17.23;54.21
65329;BME280;51941;52.210;5.158;2023-04-09T12:10:26;102342.78;;;16.95;54.59
65329;BME280;51941;52.210;5.158;2023-04-09T12:13:00;102336.28;;;17.02;54.98
65329;BME280;51941;52.210;5.158;2023-04-09T12:15:31;102339.19;;;17.01;54.76
65329;BME280;51941;52.210;5.158;2023-04-09T12:17:58;102345.63;;;17.17;54.11
65329;BME280;51941;52.210;5.158;2023-04-09T12:20:30;102345.88;;;17.15;53.36
65329;BME280;51941;52.210;5.158;2023-04-09T12:22:58;102346.78;;;17.21;54.02
65329;BME280;51941;52.210;5.158;2023-04-09T12:25:26;102354.00;;;17.20;52.78
65329;BME280;51941;52.210;5.158;2023-04-09T12:27:55;102342.97;;;17.17;53.00
65329;BME280;51941;52.210;5.158;2023-04-09T12:30:22;102351.22;;;17.15;53.12
65329;BME280;51941;52.210;5.158;2023-04-09T12:32:49;102345.88;;;17.15;51.94
65329;BME280;51941;52.210;5.158;2023-04-09T12:35:16;102345.16;;;17.20;52.17
65329;BME280;51941;52.210;5.158;2023-04-09T12:37:42;102349.72;;;17.19;53.16
65329;BME280;51941;52.210;5.158;2023-04-09T12:40:10;102347.25;;;17.29;52.19
65329;BME280;51941;52.210;5.158;2023-04-09T12:42:38;102348.38;;;17.33;51.53
65329;BME280;51941;52.210;5.158;2023-04-09T12:45:08;102339.63;;;17.38;50.39
65329;BME280;51941;52.210;5.158;2023-04-09T12:47:35;102322.13;;;17.19;49.40
65329;BME280;51941;52.210;5.158;2023-04-09T12:50:02;102341.72;;;17.36;49.80
65329;BME280;51941;52.210;5.158;2023-04-09T12:52:29;102343.69;;;17.40;49.25
65329;BME280;51941;52.210;5.158;2023-04-09T12:54:56;102329.78;;;17.27;48.73
65329;BME280;51941;52.210;5.158;2023-04-09T12:57:23;102341.75;;;17.24;48.11